Time;durP1;ratioP1;P1;durP2;ratioP2;P2;SDS_P1;SDS_P2;PMS_P1;PMS_P2;Temp;Humidity;BMP_temperature;BMP_pressure;BME280_temperature;BME280_humidity;BME280_pressure;Samples;Min_cycle;Max_cycle;Signal;HPM_P1;HPM_P2
2023/11/16 00:00:12;;;;;;;2.97;1.10;;;;;;;8.09;100.00;98463.03;5064784;28;20213;-78
2023/11/16 00:02:41;;;;;;;4.97;1.90;;;;;;;8.03;100.00;98466.00;5063135;28;20237;-79
2023/11/16 00:05:11;;;;;;;3.20;1.53;;;;;;;8.00;100.00;98474.03;5062866;28;20261;-79
2023/11/16 00:07:40;;;;;;;3.17;1.40;;;;;;;7.94;100.00;98482.25;5063813;28;20255;-79
2023/11/16 00:10:08;;;;;;;2.90;1.30;;;;;;;8.04;100.00;98473.81;5063047;28;20217;-79
2023/11/16 00:12:35;;;;;;;2.40;1.30;;;;;;;8.04;100.00;98467.69;5063452;28;20236;-79
2023/11/16 00:15:06;;;;;;;4.07;1.60;;;;;;;8.10;100.00;98477.88;5064742;28;20208;-79
2023/11/16 00:17:32;;;;;;;4.73;1.53;;;;;;;8.11;100.00;98474.31;5066291;28;20236;-79
2023/11/16 00:19:59;;;;;;;3.00;1.33;;;;;;;8.08;100.00;98471.88;5065266;28;20237;-79
2023/11/16 00:22:26;;;;;;;5.03;1.53;;;;;;;8.12;100.00;98470.75;5064006;28;20548;-80
2023/11/16 00:24:53;;;;;;;4.07;1.80;;;;;;;8.13;100.00;98472.44;5060050;28;20212;-79
2023/11/16 00:27:19;;;;;;;2.43;1.43;;;;;;;8.12;100.00;98460.22;5061338;28;20283;-79
2023/11/16 00:29:46;;;;;;;2.30;1.30;;;;;;;8.14;100.00;98459.22;5061229;28;20300;-79
2023/11/16 00:32:14;;;;;;;4.53;1.67;;;;;;;8.10;100.00;98462.09;5060252;28;20234;-79
2023/11/16 00:34:41;;;;;;;2.50;1.40;;;;;;;8.05;100.00;98466.75;5060142;28;20217;-79
2023/11/16 00:37:08;;;;;;;2.60;1.60;;;;;;;8.06;100.00;98471.06;5059583;28;20609;-79
2023/11/16 00:39:34;;;;;;;5.47;1.63;;;;;;;8.06;100.00;98465.81;5059597;28;20204;-78
2023/11/16 00:42:01;;;;;;;3.67;1.40;;;;;;;8.06;100.00;98460.56;5040888;28;20239;-79
2023/11/16 00:44:27;;;;;;;3.20;1.50;;;;;;;8.04;100.00;98465.06;5059285;28;20260;-79
2023/11/16 00:46:54;;;;;;;4.60;1.57;;;;;;;8.07;100.00;98467.50;5059008;28;20230;-79
2023/11/16 00:49:22;;;;;;;3.30;1.60;;;;;;;8.03;100.00;98469.47;5059014;28;20213;-79
2023/11/16 00:51:49;;;;;;;2.30;1.47;;;;;;;7.97;100.00;98463.69;5059489;28;20648;-79
2023/11/16 00:54:16;;;;;;;3.53;1.60;;;;;;;7.92;100.00;98463.09;5059025;28;20205;-79
2023/11/16 00:56:44;;;;;;;2.43;1.53;;;;;;;7.95;100.00;98462.94;5059988;28;20698;-79
2023/11/16 00:59:10;;;;;;;2.80;1.47;;;;;;;7.97;100.00;98458.44;5059082;28;20205;-79
2023/11/16 01:01:37;;;;;;;2.50;1.50;;;;;;;8.01;100.00;98452.91;5057036;28;20224;-79
2023/11/16 01:04:06;;;;;;;6.47;1.50;;;;;;;8.02;100.00;98459.03;5058573;28;20255;-79
2023/11/16 01:06:34;;;;;;;1.87;1.47;;;;;;;8.01;100.00;98463.44;5057109;28;20639;-79
2023/11/16 01:09:06;;;;;;;3.30;1.80;;;;;;;8.00;100.00;98451.22;5057844;28;20224;-79
2023/11/16 01:11:33;;;;;;;3.40;1.50;;;;;;;7.94;100.00;98434.88;5057182;28;20236;-79
2023/11/16 01:14:01;;;;;;;2.03;1.40;;;;;;;7.90;100.00;98443.91;5058478;28;20275;-79
2023/11/16 01:16:32;;;;;;;1.60;1.30;;;;;;;7.87;100.00;98444.91;5058883;28;20218;-79
2023/11/16 01:19:00;;;;;;;2.73;1.50;;;;;;;7.77;100.00;98433.16;5059205;28;20208;-79
2023/11/16 01:21:27;;;;;;;3.43;1.60;;;;;;;7.72;100.00;98440.44;5059007;28;20233;-79
2023/11/16 01:24:02;;;;;;;3.40;1.60;;;;;;;7.73;100.00;98449.22;5057776;28;20283;-79
2023/11/16 01:26:30;;;;;;;2.57;1.30;;;;;;;7.75;100.00;98447.34;5057621;28;20223;-79
2023/11/16 01:29:01;;;;;;;3.97;1.80;;;;;;;7.78;100.00;98439.28;5058180;28;20205;-79
2023/11/16 01:31:28;;;;;;;5.93;1.73;;;;;;;7.78;100.00;98434.03;5058462;28;20313;-79
2023/11/16 01:33:54;;;;;;;4.20;2.03;;;;;;;7.80;100.00;98438.28;5058002;28;20213;-79
2023/11/16 01:36:24;;;;;;;3.20;1.83;;;;;;;7.79;100.00;98433.09;5058230;28;20204;-79
2023/11/16 01:38:50;;;;;;;2.37;1.40;;;;;;;7.79;100.00;98441.81;5057807;28;20218;-79
2023/11/16 01:41:18;;;;;;;3.17;1.60;;;;;;;7.77;100.00;98438.44;5057604;28;20324;-79
2023/11/16 01:43:46;;;;;;;3.27;1.60;;;;;;;7.76;100.00;98428.84;5057336;28;20248;-79
2023/11/16 01:46:15;;;;;;;2.93;1.80;;;;;;;7.80;100.00;98432.16;5057526;28;20230;-79
2023/11/16 01:48:44;;;;;;;3.90;2.23;;;;;;;7.77;100.00;98438.44;5057498;28;20220;-79
2023/11/16 01:51:14;;;;;;;3.67;1.70;;;;;;;7.84;100.00;98438.97;5057448;28;20256;-79
2023/11/16 01:53:44;;;;;;;3.03;1.60;;;;;;;7.77;100.00;98432.34;5057444;28;20232;-79
2023/11/16 01:56:12;;;;;;;3.10;1.70;;;;;;;7.75;100.00;98432.41;5057355;28;20209;-79
2023/11/16 01:58:40;;;;;;;5.57;1.90;;;;;;;7.75;100.00;98434.19;5057186;28;20226;-79
2023/11/16 02:01:09;;;;;;;5.77;1.73;;;;;;;7.75;100.00;98444.69;5057589;28;20229;-79
2023/11/16 02:03:35;;;;;;;4.63;1.47;;;;;;;7.75;100.00;98449.97;5056602;28;20224;-79
2023/11/16 02:06:04;;;;;;;5.23;1.83;;;;;;;7.82;100.00;98440.81;5057137;28;20209;-79
2023/11/16 02:08:31;;;;;;;2.60;1.30;;;;;;;7.82;100.00;98440.81;5057118;28;20224;-79
2023/11/16 02:10:58;;;;;;;2.60;1.33;;;;;;;7.83;100.00;98437.28;5056486;28;20227;-78
2023/11/16 02:13:25;;;;;;;5.40;1.70;;;;;;;7.82;100.00;98435.56;5056399;28;20201;-78
2023/11/16 02:15:55;;;;;;;2.53;1.27;;;;;;;7.85;100.00;98451.19;5057108;28;20215;-78
2023/11/16 02:18:23;;;;;;;2.47;1.30;;;;;;;7.87;100.00;98444.06;5056466;28;20209;-78
2023/11/16 02:20:49;;;;;;;2.43;1.33;;;;;;;7.86;100.00;98442.34;5056730;28;20219;-79
2023/11/16 02:23:18;;;;;;;2.20;1.40;;;;;;;7.83;100.00;98439.91;5056911;28;20240;-78
2023/11/16 02:25:44;;;;;;;2.30;1.50;;;;;;;7.87;100.00;98454.56;5056700;28;20270;-78
2023/11/16 02:28:11;;;;;;;1.40;1.17;;;;;;;7.88;100.00;98445.75;5056998;28;20213;-79
2023/11/16 02:30:37;;;;;;;1.97;1.40;;;;;;;7.85;100.00;98448.56;5056520;28;20584;-78
2023/11/16 02:33:04;;;;;;;5.07;2.07;;;;;;;7.85;100.00;98452.03;5056086;28;20228;-78
2023/11/16 02:35:31;;;;;;;2.80;1.67;;;;;;;7.82;100.00;98430.28;5056441;28;20236;-78
2023/11/16 02:37:57;;;;;;;4.67;1.90;;;;;;;7.85;100.00;98430.13;5056978;28;20216;-78
2023/11/16 02:40:25;;;;;;;4.07;1.63;;;;;;;7.81;100.00;98439.97;5056412;28;20547;-79
2023/11/16 02:42:52;;;;;;;4.83;1.67;;;;;;;7.84;100.00;98438.97;5056677;28;20236;-78
2023/11/16 02:45:19;;;;;;;4.57;1.80;;;;;;;7.81;100.00;98442.63;5056394;28;20233;-78
2023/11/16 02:47:46;;;;;;;5.80;1.80;;;;;;;7.85;100.00;98436.22;5056274;28;20201;-78
2023/11/16 02:50:16;;;;;;;4.87;1.50;;;;;;;7.84;100.00;98431.06;5056477;28;20237;-78
2023/11/16 02:52:43;;;;;;;3.33;1.37;;;;;;;7.78;100.00;98426.13;5056748;28;20257;-78
2023/11/16 02:55:09;;;;;;;3.37;1.40;;;;;;;7.76;100.00;98415.69;5055998;28;20209;-78
2023/11/16 02:57:39;;;;;;;3.17;1.40;;;;;;;7.70;100.00;98410.75;5056337;28;20728;-78
2023/11/16 03:00:07;;;;;;;3.20;1.40;;;;;;;7.67;100.00;98417.97;5056614;28;20240;-79
2023/11/16 03:02:34;;;;;;;3.63;1.63;;;;;;;7.62;100.00;98412.09;5056906;28;20249;-78
2023/11/16 03:05:01;;;;;;;3.37;1.50;;;;;;;7.60;100.00;98411.34;5056891;28;20237;-78
2023/11/16 03:07:28;;;;;;;3.77;1.50;;;;;;;7.62;100.00;98406.81;5057344;28;20220;-79
2023/11/16 03:09:54;;;;;;;3.07;1.83;;;;;;;7.63;100.00;98405.91;5057000;28;20299;-79
2023/11/16 03:12:21;;;;;;;2.47;1.43;;;;;;;7.63;100.00;98396.22;5056763;28;20233;-78
2023/11/16 03:14:49;;;;;;;4.63;1.60;;;;;;;7.65;100.00;98393.53;5056830;28;20251;-79
2023/11/16 03:17:17;;;;;;;2.53;1.40;;;;;;;7.62;100.00;98391.03;5057265;28;20331;-78
2023/11/16 03:19:44;;;;;;;2.40;1.40;;;;;;;7.63;100.00;98384.84;5056063;28;20207;-79
2023/11/16 03:22:10;;;;;;;3.43;1.50;;;;;;;7.61;100.00;98384.09;5055785;28;20224;-80
2023/11/16 03:24:37;;;;;;;1.77;1.10;;;;;;;7.61;100.00;98378.81;5060134;28;20233;-79
2023/11/16 03:27:04;;;;;;;2.40;1.37;;;;;;;7.59;100.00;98375.44;5060174;28;20213;-79
2023/11/16 03:29:31;;;;;;;3.20;1.80;;;;;;;7.60;100.00;98372.72;5061077;28;20211;-78
2023/11/16 03:31:59;;;;;;;2.20;1.40;;;;;;;7.62;100.00;98359.47;5060023;28;20691;-78
2023/11/16 03:34:25;;;;;;;5.77;1.93;;;;;;;7.60;100.00;98356.09;5059828;28;20232;-79
2023/11/16 03:36:52;;;;;;;4.20;1.33;;;;;;;7.58;100.00;98348.28;5059737;28;20221;-78
2023/11/16 03:39:18;;;;;;;3.93;1.70;;;;;;;7.58;100.00;98342.16;5060030;28;20213;-78
2023/11/16 03:41:45;;;;;;;2.07;1.47;;;;;;;7.54;100.00;98332.75;5059592;28;20229;-78
2023/11/16 03:44:11;;;;;;;5.27;1.87;;;;;;;7.51;100.00;98330.28;5059739;28;20235;-78
2023/11/16 03:46:38;;;;;;;1.57;1.20;;;;;;;7.46;100.00;98329.66;5060244;28;20558;-79
2023/11/16 03:49:06;;;;;;;2.20;1.17;;;;;;;7.44;100.00;98331.53;5060163;28;20223;-78
2023/11/16 03:51:32;;;;;;;2.70;1.40;;;;;;;7.41;100.00;98335.19;5059827;28;20239;-79
2023/11/16 03:53:58;;;;;;;2.37;1.50;;;;;;;7.35;100.00;98339.94;5059701;28;20200;-78
2023/11/16 03:56:25;;;;;;;3.63;1.50;;;;;;;7.29;100.00;98340.25;5060116;28;20204;-78
2023/11/16 03:58:52;;;;;;;3.53;1.30;;;;;;;7.26;100.00;98345.66;5059755;28;20305;-78
2023/11/16 04:01:18;;;;;;;4.33;1.20;;;;;;;7.26;100.00;98358.81;5059126;28;20281;-78
2023/11/16 04:03:45;;;;;;;3.80;1.53;;;;;;;7.22;100.00;98364.31;5058811;28;20228;-78
2023/11/16 04:06:19;;;;;;;3.83;1.40;;;;;;;7.28;100.00;98369.25;5060070;28;20288;-78
2023/11/16 04:08:45;;;;;;;2.30;1.30;;;;;;;7.25;100.00;98370.25;5059867;28;20220;-78
2023/11/16 04:11:11;;;;;;;3.20;1.17;;;;;;;7.30;100.00;98362.97;5059100;28;20285;-79
2023/11/16 04:13:38;;;;;;;1.13;1.00;;;;;;;7.29;100.00;98364.75;5059622;28;20212;-78
2023/11/16 04:16:06;;;;;;;2.23;1.47;;;;;;;7.28;100.00;98346.44;5059360;28;20675;-78
2023/11/16 04:18:33;;;;;;;2.43;1.30;;;;;;;7.12;100.00;98348.16;5059126;28;20644;-79
2023/11/16 04:21:00;;;;;;;3.20;1.20;;;;;;;7.12;100.00;98337.66;5059247;28;20236;-78
2023/11/16 04:23:28;;;;;;;3.40;1.30;;;;;;;7.21;100.00;98339.78;5059270;28;20209;-79
2023/11/16 04:25:54;;;;;;;4.80;1.20;;;;;;;7.18;100.00;98327.66;5059026;28;20228;-78
2023/11/16 04:28:21;;;;;;;1.23;1.13;;;;;;;7.18;100.00;98331.22;5059348;28;20204;-78
2023/11/16 04:30:47;;;;;;;4.50;1.40;;;;;;;7.18;100.00;98332.09;5059221;28;20245;-78
2023/11/16 04:33:14;;;;;;;3.10;1.50;;;;;;;7.19;100.00;98336.41;5058711;28;20541;-79
2023/11/16 04:35:44;;;;;;;2.30;1.17;;;;;;;7.20;100.00;98330.22;5057874;28;20210;-78
2023/11/16 04:38:12;;;;;;;4.00;1.27;;;;;;;7.22;100.00;98324.88;5058926;28;20662;-78
2023/11/16 04:40:40;;;;;;;1.20;1.10;;;;;;;7.27;100.00;98328.94;5058852;28;20663;-78
2023/11/16 04:43:06;;;;;;;1.97;1.00;;;;;;;7.23;100.00;98325.63;5058462;28;20683;-78
2023/11/16 04:45:34;;;;;;;2.17;1.40;;;;;;;7.26;100.00;98335.16;5058947;28;20380;-78
2023/11/16 04:48:01;;;;;;;2.37;1.30;;;;;;;7.27;100.00;98346.53;5058788;28;20296;-78
2023/11/16 04:50:31;;;;;;;3.27;1.50;;;;;;;7.31;100.00;98341.00;5058698;28;20268;-78
2023/11/16 04:52:57;;;;;;;2.33;1.40;;;;;;;7.38;100.00;98341.56;5059132;28;20234;-78
2023/11/16 04:55:25;;;;;;;3.40;1.20;;;;;;;7.41;100.00;98329.09;5058884;28;20202;-78
2023/11/16 04:57:54;;;;;;;1.60;1.20;;;;;;;7.40;100.00;98336.13;5058427;28;20216;-78
2023/11/16 05:00:20;;;;;;;3.30;1.40;;;;;;;7.42;100.00;98334.25;5058788;28;20285;-78
2023/11/16 05:02:47;;;;;;;3.20;1.37;;;;;;;7.41;100.00;98318.56;5058347;28;20734;-78
2023/11/16 05:05:14;;;;;;;4.57;1.30;;;;;;;7.40;100.00;98316.84;5058556;28;20223;-78
2023/11/16 05:07:40;;;;;;;3.17;1.53;;;;;;;7.36;100.00;98315.34;5058428;28;20213;-78
2023/11/16 05:10:10;;;;;;;3.00;1.50;;;;;;;7.36;100.00;98318.78;5058194;28;20218;-79
2023/11/16 05:12:39;;;;;;;3.33;1.53;;;;;;;7.38;100.00;98318.72;5057885;28;20614;-78
2023/11/16 05:15:09;;;;;;;2.80;1.47;;;;;;;7.36;100.00;98305.66;5057678;28;20204;-78
2023/11/16 05:17:35;;;;;;;2.13;1.60;;;;;;;7.33;100.00;98307.59;5057898;28;20209;-78
2023/11/16 05:20:02;;;;;;;1.63;1.40;;;;;;;7.33;100.00;98307.59;5057534;28;20279;-79
2023/11/16 05:22:28;;;;;;;3.23;1.60;;;;;;;7.28;100.00;98301.75;5057548;28;20239;-78
2023/11/16 05:24:55;;;;;;;3.60;1.40;;;;;;;7.29;100.00;98303.44;5057154;28;20225;-78
2023/11/16 05:27:21;;;;;;;3.23;1.57;;;;;;;7.28;100.00;98307.84;5058069;28;20690;-78
2023/11/16 05:29:48;;;;;;;3.57;1.60;;;;;;;7.33;100.00;98315.47;5057918;28;20620;-79
2023/11/16 05:32:17;;;;;;;3.03;1.70;;;;;;;7.33;100.00;98304.97;5057661;28;20231;-78
2023/11/16 05:34:44;;;;;;;3.27;1.73;;;;;;;7.34;100.00;98299.63;5057529;28;20302;-78
2023/11/16 05:37:11;;;;;;;3.17;1.50;;;;;;;7.32;100.00;98303.28;5057511;28;20627;-79
2023/11/16 05:39:38;;;;;;;2.63;1.47;;;;;;;7.30;100.00;98294.63;5057153;28;20245;-78
2023/11/16 05:42:06;;;;;;;2.93;1.60;;;;;;;7.27;100.00;98289.50;5057029;28;20239;-78
2023/11/16 05:44:32;;;;;;;2.50;1.30;;;;;;;7.24;100.00;98289.69;5056966;28;20237;-78
2023/11/16 05:46:59;;;;;;;2.20;1.50;;;;;;;7.22;100.00;98284.50;5056253;28;20221;-79
2023/11/16 05:49:28;;;;;;;2.63;1.57;;;;;;;7.19;100.00;98275.94;5057378;28;20314;-78
2023/11/16 05:51:55;;;;;;;2.37;1.80;;;;;;;7.16;100.00;98281.38;5056585;28;20323;-78
2023/11/16 05:54:22;;;;;;;2.43;1.47;;;;;;;7.16;100.00;98275.25;5057034;28;20219;-78
2023/11/16 05:56:50;;;;;;;2.10;1.67;;;;;;;7.16;100.00;98270.88;5057914;28;20237;-78
2023/11/16 05:59:17;;;;;;;4.27;1.57;;;;;;;7.15;100.00;98274.41;5057435;28;20263;-78
2023/11/16 06:01:44;;;;;;;3.63;1.47;;;;;;;7.15;100.00;98258.63;5056172;28;20232;-77
2023/11/16 06:04:10;;;;;;;3.70;1.93;;;;;;;7.16;100.00;98260.34;5057060;28;20287;-78
2023/11/16 06:06:39;;;;;;;4.00;1.70;;;;;;;7.19;100.00;98254.91;5056830;28;20215;-78
2023/11/16 06:09:06;;;;;;;3.67;1.70;;;;;;;7.23;100.00;98245.94;5057145;28;20605;-78
2023/11/16 06:11:33;;;;;;;2.93;1.60;;;;;;;7.23;100.00;98238.06;5056850;28;20228;-79
2023/11/16 06:14:00;;;;;;;3.50;1.50;;;;;;;7.24;100.00;98231.88;5056805;28;20211;-78
2023/11/16 06:16:27;;;;;;;3.90;1.90;;;;;;;7.20;100.00;98235.59;5057141;28;20203;-78
2023/11/16 06:18:54;;;;;;;2.63;1.43;;;;;;;7.19;100.00;98239.16;5056947;28;20589;-78
2023/11/16 06:21:20;;;;;;;1.93;1.60;;;;;;;7.18;100.00;98239.22;5060997;28;20238;-78
2023/11/16 06:23:48;;;;;;;2.07;1.87;;;;;;;7.17;100.00;98235.75;5061591;28;20212;-78
2023/11/16 06:26:14;;;;;;;2.37;1.50;;;;;;;7.16;100.00;98226.19;5059241;28;20721;-78
2023/11/16 06:28:40;;;;;;;2.63;1.87;;;;;;;7.15;100.00;98227.09;5057167;28;20217;-78
2023/11/16 06:31:07;;;;;;;3.70;1.70;;;;;;;7.10;100.00;98234.41;5057344;28;20250;-79
2023/11/16 06:33:33;;;;;;;5.70;1.60;;;;;;;7.09;100.00;98237.94;5057228;28;20215;-79
2023/11/16 06:36:00;;;;;;;2.50;1.50;;;;;;;7.05;100.00;98236.41;5056739;28;20228;-78
2023/11/16 06:38:29;;;;;;;2.07;1.43;;;;;;;7.11;100.00;98236.09;5056994;28;20203;-79
2023/11/16 06:40:58;;;;;;;3.10;1.47;;;;;;;7.12;100.00;98229.03;5056252;28;20279;-78
2023/11/16 06:43:24;;;;;;;3.13;1.77;;;;;;;7.07;100.00;98229.28;5057078;28;20209;-78
2023/11/16 06:45:51;;;;;;;5.53;1.80;;;;;;;7.04;100.00;98228.63;5056440;28;20240;-78
2023/11/16 06:48:18;;;;;;;4.33;1.67;;;;;;;7.02;100.00;98226.06;5056178;28;20215;-78
2023/11/16 06:50:45;;;;;;;3.10;1.90;;;;;;;6.93;100.00;98221.31;5055797;28;20563;-78
2023/11/16 06:53:12;;;;;;;4.57;2.03;;;;;;;6.89;100.00;98217.13;5055963;28;20212;-78
2023/11/16 06:55:43;;;;;;;4.37;1.80;;;;;;;6.83;100.00;98214.84;5055684;28;20204;-79
2023/11/16 06:58:10;;;;;;;2.77;1.73;;;;;;;6.71;100.00;98209.41;5055243;28;20301;-78
2023/11/16 07:00:37;;;;;;;3.43;1.70;;;;;;;6.60;100.00;98223.06;5055416;28;20210;-78
2023/11/16 07:03:04;;;;;;;5.33;2.10;;;;;;;6.53;100.00;98224.31;5055930;28;20208;-78
2023/11/16 07:05:32;;;;;;;3.33;1.80;;;;;;;6.53;100.00;98215.59;5055710;28;20252;-78
2023/11/16 07:07:58;;;;;;;4.87;1.80;;;;;;;6.53;100.00;98205.94;5055426;28;20251;-78
2023/11/16 07:10:25;;;;;;;3.97;1.97;;;;;;;6.55;100.00;98214.59;5056020;28;20210;-78
2023/11/16 07:12:52;;;;;;;3.57;2.03;;;;;;;6.62;100.00;98202.84;5056837;28;20710;-78
2023/11/16 07:15:21;;;;;;;5.97;1.70;;;;;;;6.71;100.00;98199.72;5056312;28;20208;-78
2023/11/16 07:17:48;;;;;;;4.57;1.93;;;;;;;6.80;100.00;98188.75;5055198;28;20208;-78
2023/11/16 07:20:16;;;;;;;2.77;1.50;;;;;;;6.89;100.00;98193.50;5055250;28;20215;-78
2023/11/16 07:22:43;;;;;;;3.27;2.00;;;;;;;6.96;100.00;98189.59;5054771;28;20263;-78
2023/11/16 07:25:12;;;;;;;4.33;2.03;;;;;;;6.96;100.00;98186.97;5054297;28;20227;-78
2023/11/16 07:27:39;;;;;;;2.60;1.87;;;;;;;7.01;100.00;98186.75;5053026;28;20216;-78
2023/11/16 07:30:07;;;;;;;3.63;1.70;;;;;;;7.03;100.00;98180.44;5054407;28;20216;-79
2023/11/16 07:32:35;;;;;;;3.50;1.83;;;;;;;7.02;100.00;98184.00;5054538;28;20232;-78
2023/11/16 07:35:14;;;;;;;2.60;2.00;;;;;;;6.98;100.00;98184.28;5054117;28;20208;-78
2023/11/16 07:37:41;;;;;;;3.80;2.03;;;;;;;6.95;100.00;98182.66;5054647;28;20605;-78
2023/11/16 07:40:11;;;;;;;2.73;2.00;;;;;;;6.97;100.00;98191.28;5053460;28;20307;-78
2023/11/16 07:42:39;;;;;;;2.83;2.33;;;;;;;7.01;100.00;98186.75;5053393;28;20238;-78
2023/11/16 07:45:09;;;;;;;3.60;1.90;;;;;;;7.07;100.00;98173.25;5052394;28;20816;-78
2023/11/16 07:47:38;;;;;;;4.43;1.80;;;;;;;7.12;100.00;98169.47;5053084;28;20208;-78
2023/11/16 07:50:07;;;;;;;4.10;2.03;;;;;;;7.22;100.00;98168.03;5054496;28;20208;-80
2023/11/16 07:52:42;;;;;;;5.83;2.37;;;;;;;7.28;100.00;98170.31;5054868;28;20228;-78
2023/11/16 07:55:09;;;;;;;3.20;2.00;;;;;;;7.27;100.00;98160.72;5052792;28;20268;-78
2023/11/16 07:57:37;;;;;;;3.80;1.83;;;;;;;7.30;100.00;98158.75;5052246;28;20210;-78
2023/11/16 08:00:11;;;;;;;2.43;1.80;;;;;;;7.36;100.00;98152.31;5054242;28;20213;-78
2023/11/16 08:03:42;;;;;;;5.20;2.20;;;;;;;7.39;100.00;98149.50;5053754;28;20231;-78
2023/11/16 08:05:26;;;;;;;5.93;1.87;;;;;;;7.45;100.00;98151.78;5052425;28;20263;-78
2023/11/16 08:07:55;;;;;;;5.40;1.70;;;;;;;7.45;100.00;98157.91;5053424;28;20589;-78
2023/11/16 08:10:23;;;;;;;2.77;1.80;;;;;;;7.46;100.00;98153.47;5055582;28;20209;-78
2023/11/16 08:12:53;;;;;;;2.70;1.70;;;;;;;7.43;100.00;98145.78;5057093;28;20229;-78
2023/11/16 08:15:23;;;;;;;5.23;2.60;;;;;;;7.39;100.00;98139.00;5057284;28;20210;-78
2023/11/16 08:17:53;;;;;;;4.63;2.30;;;;;;;7.38;100.00;98129.41;5057799;28;20204;-78
2023/11/16 08:20:22;;;;;;;4.87;3.50;;;;;;;7.38;100.00;98126.78;5056789;28;20210;-78
2023/11/16 08:22:50;;;;;;;4.63;3.10;;;;;;;7.36;100.00;98131.28;5059154;28;20684;-78
2023/11/16 08:25:18;;;;;;;3.57;2.57;;;;;;;7.36;100.00;98115.53;5058669;28;20230;-78
2023/11/16 08:27:44;;;;;;;6.00;2.83;;;;;;;7.39;100.00;98107.44;5059372;28;20577;-78
2023/11/16 08:30:12;;;;;;;6.20;3.10;;;;;;;7.45;100.00;98101.84;5059017;28;20251;-78
2023/11/16 08:32:38;;;;;;;4.60;3.07;;;;;;;7.52;100.00;98095.28;5057960;28;20240;-80
2023/11/16 08:35:07;;;;;;;5.97;3.30;;;;;;;7.58;100.00;98089.66;5057004;28;20217;-79
2023/11/16 08:37:33;;;;;;;4.73;3.17;;;;;;;7.67;100.00;98083.88;5055489;28;20301;-79
2023/11/16 08:40:00;;;;;;;5.93;3.27;;;;;;;7.72;100.00;98089.75;5052317;28;20213;-79
2023/11/16 08:42:27;;;;;;;7.90;3.87;;;;;;;7.79;100.00;98085.81;5053266;28;20230;-76
2023/11/16 08:44:53;;;;;;;6.83;3.70;;;;;;;7.87;100.00;98086.19;5054520;28;20574;-78
2023/11/16 08:47:20;;;;;;;7.50;3.33;;;;;;;7.97;100.00;98076.81;5052997;28;20240;-77
2023/11/16 08:49:47;;;;;;;6.30;3.97;;;;;;;8.06;100.00;98085.00;5053202;28;20304;-78
2023/11/16 08:52:15;;;;;;;7.03;3.70;;;;;;;8.12;100.00;98075.88;5038015;28;20226;-80
2023/11/16 08:54:42;;;;;;;7.73;3.80;;;;;;;8.09;100.00;98082.19;5057585;28;20214;-78
2023/11/16 08:57:09;;;;;;;7.33;3.80;;;;;;;8.14;100.00;98074.88;5056072;28;20213;-77
2023/11/16 08:59:43;;;;;;;7.77;3.63;;;;;;;8.23;100.00;98068.22;5056821;28;20267;-80
2023/11/16 09:02:14;;;;;;;7.97;3.60;;;;;;;8.22;100.00;98071.81;5054292;28;20287;-79
2023/11/16 09:04:41;;;;;;;8.20;3.60;;;;;;;8.20;100.00;98071.91;5054911;28;20221;-75
2023/11/16 09:07:07;;;;;;;4.20;3.40;;;;;;;8.27;100.00;98072.38;5055801;28;20289;-78
2023/11/16 09:09:37;;;;;;;7.23;3.53;;;;;;;8.34;100.00;98076.31;5055714;28;20641;-78
2023/11/16 09:12:05;;;;;;;5.77;3.73;;;;;;;8.42;100.00;98080.19;5056165;28;20234;-78
2023/11/16 09:14:34;;;;;;;8.27;4.03;;;;;;;8.48;100.00;98077.19;5055068;28;20233;-79
2023/11/16 09:17:02;;;;;;;4.63;3.50;;;;;;;8.55;100.00;98069.72;5055268;28;20685;-79
2023/11/16 09:19:29;;;;;;;7.07;4.10;;;;;;;8.59;100.00;98063.34;5058297;28;20305;-79
2023/11/16 09:21:55;;;;;;;6.93;3.97;;;;;;;8.61;100.00;98064.94;5058379;28;20235;-79
2023/11/16 09:24:25;;;;;;;6.53;3.60;;;;;;;8.65;100.00;98049.78;5058445;28;20214;-79
2023/11/16 09:26:55;;;;;;;7.50;4.10;;;;;;;8.70;100.00;98058.25;5057653;28;20278;-79
2023/11/16 09:29:22;;;;;;;4.97;3.87;;;;;;;8.72;100.00;98046.66;5057973;28;20275;-79
2023/11/16 09:31:49;;;;;;;7.83;3.80;;;;;;;8.77;100.00;98038.47;5057698;28;20249;-79
2023/11/16 09:34:16;;;;;;;5.63;3.93;;;;;;;8.85;100.00;98041.44;5058877;28;20217;-79
2023/11/16 09:36:43;;;;;;;6.93;4.30;;;;;;;8.88;100.00;98031.56;5059059;28;20215;-79
2023/11/16 09:39:11;;;;;;;5.13;4.03;;;;;;;8.91;100.00;98027.88;5059112;28;20209;-79
2023/11/16 09:41:40;;;;;;;5.40;3.57;;;;;;;8.97;100.00;98022.22;5058336;28;20231;-79
2023/11/16 09:44:13;;;;;;;7.23;3.80;;;;;;;9.00;100.00;98019.41;5057506;28;20210;-79
2023/11/16 09:46:44;;;;;;;7.37;3.83;;;;;;;9.01;100.00;98008.72;5055883;28;20237;-78
2023/11/16 09:49:11;;;;;;;4.43;3.30;;;;;;;9.04;100.00;98000.66;5055878;28;20218;-78
2023/11/16 09:51:39;;;;;;;7.40;3.07;;;;;;;9.03;100.00;97984.91;5054609;28;20312;-77
2023/11/16 09:54:08;;;;;;;5.33;3.40;;;;;;;9.02;100.00;97985.88;5051084;28;20204;-76
2023/11/16 09:56:40;;;;;;;7.27;3.17;;;;;;;9.02;100.00;97977.97;5051566;28;20211;-76
2023/11/16 09:59:13;;;;;;;3.37;2.57;;;;;;;9.03;100.00;97969.97;5051633;28;20207;-76
2023/11/16 10:01:46;;;;;;;4.37;2.60;;;;;;;9.13;100.00;97967.56;5051576;28;20231;-78
2023/11/16 10:04:14;;;;;;;4.57;2.47;;;;;;;9.13;100.00;97964.94;5060827;28;20212;-80
2023/11/16 10:06:48;;;;;;;4.63;1.97;;;;;;;9.15;100.00;97958.63;5061139;28;20294;-80
2023/11/16 10:09:14;;;;;;;3.93;2.47;;;;;;;9.15;100.00;97955.13;5058830;28;20241;-78
2023/11/16 10:11:41;;;;;;;2.73;1.93;;;;;;;9.13;100.00;97952.56;5057650;28;20226;-79
2023/11/16 10:14:08;;;;;;;3.33;2.10;;;;;;;9.09;100.00;97939.69;5057019;28;20217;-78
2023/11/16 10:16:34;;;;;;;3.07;2.20;;;;;;;9.07;100.00;97931.06;5058817;28;20206;-78
2023/11/16 10:19:05;;;;;;;6.77;2.90;;;;;;;9.06;100.00;97924.09;5055947;28;20214;-77
2023/11/16 10:21:33;;;;;;;6.13;2.23;;;;;;;9.06;100.00;97914.38;5055350;28;20326;-78
2023/11/16 10:24:08;;;;;;;4.30;2.43;;;;;;;9.10;100.00;97909.75;5054922;28;20694;-78
2023/11/16 10:26:35;;;;;;;4.23;2.03;;;;;;;9.08;100.00;97906.38;5055945;28;20304;-78
2023/11/16 10:29:01;;;;;;;3.27;2.00;;;;;;;9.11;100.00;97900.91;5056431;28;20210;-78
2023/11/16 10:31:31;;;;;;;4.70;2.33;;;;;;;9.12;100.00;97889.41;5055650;28;20253;-78
2023/11/16 10:33:59;;;;;;;3.37;2.07;;;;;;;9.16;100.00;97877.69;5055210;28;20549;-78
2023/11/16 10:36:27;;;;;;;4.50;1.93;;;;;;;9.15;100.00;97871.59;5055311;28;20233;-78
2023/11/16 10:38:55;;;;;;;4.60;2.00;;;;;;;9.21;100.00;97854.50;5054880;28;20211;-79
2023/11/16 10:41:23;;;;;;;2.43;1.80;;;;;;;9.27;100.00;97848.81;5056176;28;20228;-80
2023/11/16 10:43:52;;;;;;;2.93;1.83;;;;;;;9.27;100.00;97839.13;5055987;28;20295;-80
2023/11/16 10:46:20;;;;;;;5.63;2.33;;;;;;;9.28;100.00;97824.13;5057104;28;20290;-80
2023/11/16 10:48:49;;;;;;;6.20;2.47;;;;;;;9.24;100.00;97815.59;5055986;28;20216;-79
2023/11/16 10:51:21;;;;;;;3.33;2.23;;;;;;;9.25;100.00;97813.81;5056514;28;20234;-79
2023/11/16 10:53:53;;;;;;;4.83;2.30;;;;;;;9.24;100.00;97806.84;5056333;28;20212;-79
2023/11/16 10:56:21;;;;;;;3.97;1.97;;;;;;;9.17;100.00;97802.97;5053423;28;20404;-83
2023/11/16 10:58:49;;;;;;;2.90;2.17;;;;;;;9.16;100.00;97793.34;5059010;28;20222;-83
2023/11/16 11:01:18;;;;;;;6.13;2.37;;;;;;;9.20;100.00;97784.28;5057399;28;20228;-81
2023/11/16 11:03:46;;;;;;;2.60;1.80;;;;;;;9.20;100.00;97771.09;5057579;28;20220;-81
2023/11/16 11:06:18;;;;;;;4.47;2.23;;;;;;;9.21;100.00;97764.88;5057882;28;20239;-81
2023/11/16 11:08:47;;;;;;;4.43;1.90;;;;;;;9.20;100.00;97748.22;5058459;28;20234;-81
2023/11/16 11:11:24;;;;;;;2.87;2.30;;;;;;;9.22;100.00;97740.19;5056316;28;20279;-80
2023/11/16 11:13:53;;;;;;;4.63;2.27;;;;;;;9.18;100.00;97736.09;5056707;28;20635;-81
2023/11/16 11:16:20;;;;;;;4.97;2.53;;;;;;;9.19;100.00;97725.41;5055409;28;20205;-80
2023/11/16 11:18:51;;;;;;;3.57;2.30;;;;;;;9.15;100.00;97717.84;5054977;28;20212;-80
2023/11/16 11:21:20;;;;;;;9.37;2.30;;;;;;;9.13;100.00;97703.94;5055157;28;20293;-80
2023/11/16 11:23:59;;;;;;;5.00;2.53;;;;;;;9.13;100.00;97704.75;5055957;28;20211;-80
2023/11/16 11:26:37;;;;;;;9.67;3.23;;;;;;;9.17;100.00;97702.78;5057561;28;20274;-80
2023/11/16 11:29:05;;;;;;;4.83;2.70;;;;;;;9.13;100.00;97685.47;5054538;28;20716;-80
2023/11/16 11:31:37;;;;;;;5.60;2.70;;;;;;;9.18;100.00;97680.72;5054581;28;20235;-80
2023/11/16 11:34:10;;;;;;;4.43;2.63;;;;;;;9.28;100.00;97671.19;5054065;28;20306;-80
2023/11/16 11:36:38;;;;;;;6.13;2.57;;;;;;;9.43;100.00;97660.38;5052743;28;20230;-80